Time;durP1;ratioP1;P1;durP2;ratioP2;P2;SDS_P1;SDS_P2;PMS_P1;PMS_P2;Temp;Humidity;BMP_temperature;BMP_pressure;BME280_temperature;BME280_humidity;BME280_pressure;Samples;Min_cycle;Max_cycle;Signal;HPM_P1;HPM_P2
2022/10/04 00:00:09;;;;;;;10.63;5.55;;;;;;;;;;5001260;28;20030;-81
2022/10/04 00:02:35;;;;;;;10.00;5.18;;;;;;;;;;5002846;28;20033;-76
2022/10/04 00:05:07;;;;;;;8.60;5.20;;;;;;;;;;5004092;28;20022;-77
2022/10/04 00:07:45;;;;;;;6.72;4.85;;;;;;;;;;5005220;28;20057;-77
2022/10/04 00:10:23;;;;;;;7.93;5.03;;;;;;;;;;5016771;28;20490;-78
2022/10/04 00:12:57;;;;;;;9.73;5.93;;;;;;;;;;5000915;28;20080;-76
2022/10/04 00:15:36;;;;;;;6.80;4.63;;;;;;;;;;5005113;28;22116;-77
2022/10/04 00:18:11;;;;;;;12.38;5.13;;;;;;;;;;5002456;28;20098;-77
2022/10/04 00:20:54;;;;;;;9.40;5.32;;;;;;;;;;5000611;28;20044;-77
2022/10/04 00:23:22;;;;;;;7.82;5.28;;;;;;;;;;4999933;28;20042;-77
2022/10/04 00:25:49;;;;;;;11.55;5.45;;;;;;;;;;5000831;28;20061;-79
2022/10/04 00:28:25;;;;;;;9.40;5.07;;;;;;;;;;5002219;28;20022;-78
2022/10/04 00:31:13;;;;;;;7.72;5.10;;;;;;;;;;5001502;28;20088;-79
2022/10/04 00:33:44;;;;;;;10.90;5.57;;;;;;;;;;5007279;28;20440;-77
2022/10/04 00:36:24;;;;;;;9.38;5.78;;;;;;;;;;4998911;28;20515;-78
2022/10/04 00:39:08;;;;;;;8.15;5.35;;;;;;;;;;5000118;28;20112;-79
2022/10/04 00:41:45;;;;;;;8.60;5.75;;;;;;;;;;5005606;28;20109;-79
2022/10/04 00:44:23;;;;;;;8.98;5.10;;;;;;;;;;5013381;28;20030;-77
2022/10/04 00:46:50;;;;;;;9.10;5.13;;;;;;;;;;5003648;28;20030;-79
2022/10/04 00:49:20;;;;;;;7.30;5.47;;;;;;;;;;5003606;28;20036;-77
2022/10/04 00:51:52;;;;;;;9.25;5.50;;;;;;;;;;5006085;28;20045;-76
2022/10/04 00:54:25;;;;;;;8.30;5.40;;;;;;;;;;5005367;28;20116;-77
2022/10/04 00:56:55;;;;;;;8.57;4.93;;;;;;;;;;5007336;28;20029;-78
2022/10/04 00:59:37;;;;;;;10.05;5.68;;;;;;;;;;5010114;28;20040;-81
2022/10/04 01:02:05;;;;;;;7.05;4.93;;;;;;;;;;4996591;28;20034;-76
2022/10/04 01:07:07;;;;;;;9.40;5.88;;;;;;;;;;5629556;22;20046;-85
2022/10/04 01:09:37;;;;;;;8.73;5.65;;;;;;;;;;5002963;28;20508;-85
2022/10/04 01:12:09;;;;;;;8.70;5.70;;;;;;;;;;5005943;28;20032;-84
2022/10/04 01:14:46;;;;;;;8.18;5.35;;;;;;;;;;5003545;28;20105;-85
2022/10/04 01:17:11;;;;;;;9.77;5.88;;;;;;;;;;5008105;28;20033;-85
2022/10/04 01:19:37;;;;;;;8.23;5.50;;;;;;;;;;5007421;28;20401;-85
2022/10/04 01:22:34;;;;;;;10.05;6.53;;;;;;;;;;5005423;28;20104;-85
2022/10/04 01:24:59;;;;;;;7.40;5.25;;;;;;;;;;5000130;28;20099;-85
2022/10/04 01:27:34;;;;;;;9.63;5.90;;;;;;;;;;5004724;28;20021;-85
2022/10/04 01:30:02;;;;;;;7.78;5.82;;;;;;;;;;5006115;28;20488;-85
2022/10/04 01:32:29;;;;;;;7.18;5.22;;;;;;;;;;5007295;28;20029;-84
2022/10/04 01:34:55;;;;;;;12.00;5.63;;;;;;;;;;5005626;28;20033;-83
2022/10/04 01:37:21;;;;;;;10.35;5.47;;;;;;;;;;5005629;28;20100;-82
2022/10/04 01:39:46;;;;;;;9.93;5.75;;;;;;;;;;5001818;28;20481;-84
2022/10/04 01:42:22;;;;;;;9.07;5.55;;;;;;;;;;5022754;28;20068;-85
2022/10/04 01:44:57;;;;;;;9.73;5.50;;;;;;;;;;5008852;28;20030;-85
2022/10/04 01:47:36;;;;;;;9.10;5.30;;;;;;;;;;5008949;28;20018;-84
2022/10/04 01:50:07;;;;;;;9.70;5.72;;;;;;;;;;5004716;28;20165;-84
2022/10/04 01:52:43;;;;;;;10.80;5.78;;;;;;;;;;5006095;28;20022;-86
2022/10/04 01:55:15;;;;;;;9.48;5.97;;;;;;;;;;5009103;28;20445;-85
2022/10/04 01:57:47;;;;;;;9.32;5.22;;;;;;;;;;5007617;28;20022;-85
2022/10/04 02:00:13;;;;;;;8.85;5.50;;;;;;;;;;5004467;28;20042;-85
2022/10/04 02:02:59;;;;;;;9.82;5.40;;;;;;;;;;5006343;28;20030;-84
2022/10/04 02:05:37;;;;;;;8.43;5.40;;;;;;;;;;5002583;28;20457;-83
2022/10/04 02:08:06;;;;;;;11.70;5.45;;;;;;;;;;5003533;28;20061;-84
2022/10/04 02:10:35;;;;;;;9.77;5.63;;;;;;;;;;5021440;28;20033;-83
2022/10/04 02:13:01;;;;;;;9.43;5.85;;;;;;;;;;5004399;28;20027;-85
2022/10/04 02:15:28;;;;;;;10.45;5.70;;;;;;;;;;5008621;28;20040;-84
2022/10/04 02:17:55;;;;;;;9.10;5.35;;;;;;;;;;5003389;28;20041;-85
2022/10/04 02:20:25;;;;;;;8.55;5.40;;;;;;;;;;4998923;28;20517;-84
2022/10/04 02:22:58;;;;;;;9.15;5.57;;;;;;;;;;5005333;28;20385;-83
2022/10/04 02:25:25;;;;;;;;;;;;;;;;;;5003842;28;20073;-84
2022/10/04 02:27:52;;;;;;;8.15;5.05;;;;;;;;;;5006374;28;19920;-85
2022/10/04 02:30:18;;;;;;;9.90;6.05;;;;;;;;;;5019248;28;20030;-85
2022/10/04 02:32:56;;;;;;;7.90;5.35;;;;;;;;;;5004130;28;20029;-84
2022/10/04 02:35:28;;;;;;;9.63;5.50;;;;;;;;;;5004922;28;20049;-84
2022/10/04 02:38:01;;;;;;;11.07;5.65;;;;;;;;;;5005627;28;20022;-86
2022/10/04 02:40:32;;;;;;;9.88;5.38;;;;;;;;;;5002364;28;20022;-82
2022/10/04 02:43:08;;;;;;;9.05;5.47;;;;;;;;;;5007495;28;20026;-85
2022/10/04 02:45:58;;;;;;;10.23;5.40;;;;;;;;;;5005377;28;20092;-84
2022/10/04 02:48:47;;;;;;;10.80;5.85;;;;;;;;;;5004611;28;20109;-85
2022/10/04 02:51:36;;;;;;;8.25;5.18;;;;;;;;;;5005024;28;20390;-83
2022/10/04 02:54:23;;;;;;;9.93;6.05;;;;;;;;;;5002324;28;20477;-84
2022/10/04 02:56:52;;;;;;;8.25;5.38;;;;;;;;;;5009035;28;20493;-84
2022/10/04 02:59:18;;;;;;;12.57;5.70;;;;;;;;;;5017993;28;20019;-84
2022/10/04 03:02:00;;;;;;;10.07;5.25;;;;;;;;;;5000386;28;20037;-84
2022/10/04 03:04:38;;;;;;;10.88;6.15;;;;;;;;;;5004606;28;21059;-82
2022/10/04 03:07:06;;;;;;;7.32;5.45;;;;;;;;;;5001136;28;20033;-83
2022/10/04 03:09:35;;;;;;;9.20;5.55;;;;;;;;;;5001419;28;21875;-84
2022/10/04 03:12:03;;;;;;;9.98;6.20;;;;;;;;;;5000098;28;20041;-85
2022/10/04 03:14:30;;;;;;;7.95;5.70;;;;;;;;;;5005868;28;20030;-85
2022/10/04 03:17:00;;;;;;;8.10;5.70;;;;;;;;;;5001810;28;20120;-84
2022/10/04 03:19:27;;;;;;;8.75;5.72;;;;;;;;;;5007044;28;20467;-85
2022/10/04 03:21:56;;;;;;;9.50;5.78;;;;;;;;;;5006581;28;20492;-85
2022/10/04 03:24:32;;;;;;;9.13;6.10;;;;;;;;;;5009729;28;20025;-84
2022/10/04 03:27:01;;;;;;;10.98;5.78;;;;;;;;;;5011623;28;20026;-85
2022/10/04 03:29:30;;;;;;;10.25;6.05;;;;;;;;;;5008709;28;20030;-85
2022/10/04 03:31:57;;;;;;;9.85;5.82;;;;;;;;;;5006213;28;20034;-85
2022/10/04 03:34:32;;;;;;;9.70;6.47;;;;;;;;;;5009360;28;20025;-84
2022/10/04 03:36:59;;;;;;;10.18;6.15;;;;;;;;;;5007796;28;20041;-85
2022/10/04 03:39:35;;;;;;;9.05;5.70;;;;;;;;;;5006826;28;20050;-85
2022/10/04 03:42:10;;;;;;;9.38;6.03;;;;;;;;;;5010720;28;20029;-85
2022/10/04 03:44:36;;;;;;;10.85;6.07;;;;;;;;;;5006599;28;20470;-85
2022/10/04 03:47:10;;;;;;;8.75;6.28;;;;;;;;;;5008516;28;20703;-84
2022/10/04 03:49:37;;;;;;;8.52;6.07;;;;;;;;;;5007449;28;20470;-85
2022/10/04 03:52:04;;;;;;;11.40;6.22;;;;;;;;;;5009553;28;20096;-83
2022/10/04 03:54:31;;;;;;;9.77;6.22;;;;;;;;;;5013243;28;20038;-85
2022/10/04 03:56:57;;;;;;;13.07;6.63;;;;;;;;;;5010780;28;20050;-85
2022/10/04 03:59:25;;;;;;;13.20;6.90;;;;;;;;;;5005705;28;20482;-85
2022/10/04 04:02:14;;;;;;;11.70;6.70;;;;;;;;;;5008326;28;20061;-85
2022/10/04 04:05:08;;;;;;;10.35;5.85;;;;;;;;;;5009090;28;20135;-85
2022/10/04 04:07:44;;;;;;;10.50;6.85;;;;;;;;;;5004514;28;20053;-84
2022/10/04 04:10:26;;;;;;;9.93;6.60;;;;;;;;;;5008459;28;20029;-84
2022/10/04 04:13:04;;;;;;;12.32;6.13;;;;;;;;;;5006587;28;20580;-85
2022/10/04 04:15:32;;;;;;;11.20;6.35;;;;;;;;;;5025742;28;20886;-85
2022/10/04 04:18:02;;;;;;;9.63;6.30;;;;;;;;;;4999658;28;20022;-83
2022/10/04 04:20:32;;;;;;;10.05;6.45;;;;;;;;;;5007519;28;20033;-85
2022/10/04 04:23:21;;;;;;;11.82;7.13;;;;;;;;;;5008438;28;20036;-83
2022/10/04 04:25:49;;;;;;;11.73;6.80;;;;;;;;;;5023910;28;20041;-81
2022/10/04 04:28:35;;;;;;;9.77;6.22;;;;;;;;;;5016301;28;20493;-84
2022/10/04 04:31:08;;;;;;;12.20;6.05;;;;;;;;;;5005032;28;20033;-85
2022/10/04 04:33:44;;;;;;;12.10;6.65;;;;;;;;;;5008654;28;20032;-85
2022/10/04 04:36:15;;;;;;;9.02;5.65;;;;;;;;;;5004735;28;20046;-85
2022/10/04 04:41:30;;;;;;;8.73;5.75;;;;;;;;;;5011393;28;20049;-85
2022/10/04 04:43:56;;;;;;;10.98;6.38;;;;;;;;;;5006820;28;20033;-85
2022/10/04 04:46:21;;;;;;;11.57;6.90;;;;;;;;;;5008571;28;20405;-86
2022/10/04 04:48:50;;;;;;;10.88;6.25;;;;;;;;;;5007338;28;20520;-85
2022/10/04 04:51:23;;;;;;;10.60;6.57;;;;;;;;;;5023411;28;20069;-84
2022/10/04 04:53:50;;;;;;;;;;;;;;;;;;5007910;28;20021;-84
2022/10/04 04:56:22;;;;;;;9.80;6.20;;;;;;;;;;5005791;28;19933;-84
2022/10/04 04:58:50;;;;;;;11.32;5.90;;;;;;;;;;5007516;28;20061;-85
2022/10/04 05:01:28;;;;;;;10.15;5.97;;;;;;;;;;5002682;28;20389;-85
2022/10/04 05:04:11;;;;;;;8.65;5.72;;;;;;;;;;5005527;28;20022;-85
2022/10/04 05:06:41;;;;;;;10.15;6.40;;;;;;;;;;5004299;28;20090;-85
2022/10/04 05:09:30;;;;;;;11.15;6.70;;;;;;;;;;5006783;28;20033;-85
2022/10/04 05:12:06;;;;;;;9.00;6.13;;;;;;;;;;5005448;28;20533;-85
2022/10/04 05:14:34;;;;;;;12.13;6.70;;;;;;;;;;5005720;28;20029;-83
2022/10/04 05:16:59;;;;;;;9.50;6.28;;;;;;;;;;5005268;28;20489;-84
2022/10/04 05:19:31;;;;;;;11.35;6.47;;;;;;;;;;5004642;28;20077;-84
2022/10/04 05:21:59;;;;;;;10.35;6.53;;;;;;;;;;5005137;28;20034;-86
2022/10/04 05:24:26;;;;;;;10.38;6.05;;;;;;;;;;5010080;28;20029;-84
2022/10/04 05:26:55;;;;;;;11.63;6.80;;;;;;;;;;5009398;28;20034;-85
2022/10/04 05:29:25;;;;;;;9.23;6.07;;;;;;;;;;5009237;28;20113;-85
2022/10/04 05:32:09;;;;;;;8.35;6.18;;;;;;;;;;4999408;28;20021;-84
2022/10/04 05:34:40;;;;;;;8.43;5.75;;;;;;;;;;5003713;28;20430;-82
2022/10/04 05:37:19;;;;;;;10.73;6.53;;;;;;;;;;4999339;28;20022;-85
2022/10/04 05:40:14;;;;;;;12.25;6.57;;;;;;;;;;5008608;28;20030;-86
2022/10/04 05:42:46;;;;;;;9.82;5.55;;;;;;;;;;5000840;28;20112;-85
2022/10/04 05:45:11;;;;;;;9.45;6.07;;;;;;;;;;5008336;28;20025;-85
2022/10/04 05:47:41;;;;;;;9.30;6.10;;;;;;;;;;5001467;28;20496;-85
2022/10/04 05:50:15;;;;;;;9.20;6.60;;;;;;;;;;5005433;28;20022;-85
2022/10/04 05:52:42;;;;;;;13.18;5.72;;;;;;;;;;4995242;28;20037;-85
2022/10/04 05:55:27;;;;;;;8.27;5.57;;;;;;;;;;5007717;28;20474;-85
2022/10/04 05:58:24;;;;;;;10.27;5.63;;;;;;;;;;5003676;28;20018;-85
2022/10/04 06:01:07;;;;;;;9.90;6.30;;;;;;;;;;5009424;28;20033;-85
2022/10/04 06:03:32;;;;;;;8.37;5.47;;;;;;;;;;5023019;28;20030;-85
2022/10/04 06:06:21;;;;;;;9.60;5.75;;;;;;;;;;5009870;28;20628;-85
2022/10/04 06:09:05;;;;;;;10.55;5.70;;;;;;;;;;5007074;28;20585;-85
2022/10/04 06:11:48;;;;;;;9.32;5.90;;;;;;;;;;5008105;28;20037;-85
2022/10/04 06:14:28;;;;;;;9.40;5.60;;;;;;;;;;5008670;28;20116;-86
2022/10/04 06:17:19;;;;;;;10.00;6.03;;;;;;;;;;5007760;28;20026;-85
2022/10/04 06:20:20;;;;;;;9.10;5.72;;;;;;;;;;5005106;28;20054;-85
2022/10/04 06:22:50;;;;;;;11.95;6.32;;;;;;;;;;4998004;28;20060;-85
2022/10/04 06:25:23;;;;;;;11.70;6.07;;;;;;;;;;5006767;28;20084;-84
2022/10/04 06:27:48;;;;;;;;;;;;;;;;;;5004373;28;20117;-86
2022/10/04 06:30:17;;;;;;;8.07;5.13;;;;;;;;;;5010381;28;19995;-85
2022/10/04 06:33:00;;;;;;;8.75;5.68;;;;;;;;;;5008460;28;20834;-85
2022/10/04 06:35:51;;;;;;;10.45;5.90;;;;;;;;;;5004075;28;20485;-84
2022/10/04 06:38:35;;;;;;;10.68;6.22;;;;;;;;;;5008746;28;20023;-85
2022/10/04 06:41:19;;;;;;;;;;;;;;;;;;5002013;28;20564;-86
2022/10/04 06:44:01;;;;;;;9.07;5.47;;;;;;;;;;5010316;28;19913;-85
2022/10/04 06:46:50;;;;;;;9.45;5.20;;;;;;;;;;5006994;28;20036;-85
2022/10/04 06:49:43;;;;;;;10.25;5.03;;;;;;;;;;5006046;28;20038;-86
2022/10/04 06:52:19;;;;;;;11.05;5.90;;;;;;;;;;5000835;28;20939;-85
2022/10/04 06:55:10;;;;;;;10.70;5.93;;;;;;;;;;5000989;28;20033;-85
2022/10/04 06:57:48;;;;;;;7.80;5.50;;;;;;;;;;5004643;28;20029;-85
2022/10/04 07:00:25;;;;;;;9.70;5.57;;;;;;;;;;5006129;28;20048;-85
2022/10/04 07:03:08;;;;;;;7.47;5.22;;;;;;;;;;5008234;28;20152;-86
2022/10/04 07:06:03;;;;;;;9.15;5.50;;;;;;;;;;5007157;28;20108;-86
2022/10/04 07:08:32;;;;;;;7.25;5.40;;;;;;;;;;5008148;28;20042;-86
2022/10/04 07:11:16;;;;;;;8.15;5.35;;;;;;;;;;5010409;28;20374;-86
2022/10/04 07:13:56;;;;;;;7.55;4.70;;;;;;;;;;5002980;28;20124;-87
2022/10/04 07:16:35;;;;;;;10.85;5.30;;;;;;;;;;5023858;28;20044;-85
2022/10/04 07:19:19;;;;;;;9.50;5.55;;;;;;;;;;5009505;28;20052;-86
2022/10/04 07:22:06;;;;;;;10.27;5.57;;;;;;;;;;5012147;28;20386;-85
2022/10/04 07:24:53;;;;;;;6.55;4.72;;;;;;;;;;5007097;28;20551;-85
2022/10/04 07:27:40;;;;;;;7.10;5.07;;;;;;;;;;5022582;28;20448;-85
2022/10/04 07:30:13;;;;;;;9.48;5.78;;;;;;;;;;5001638;28;20544;-86
2022/10/04 07:32:44;;;;;;;11.40;5.70;;;;;;;;;;5007386;28;20037;-85
2022/10/04 07:35:11;;;;;;;7.53;4.47;;;;;;;;;;5005169;28;20042;-84
2022/10/04 07:37:49;;;;;;;9.25;4.70;;;;;;;;;;5009333;28;20029;-88
2022/10/04 07:40:20;;;;;;;9.20;5.10;;;;;;;;;;5008109;28;20125;-84
2022/10/04 07:42:50;;;;;;;9.23;5.03;;;;;;;;;;5009533;28;20022;-85
2022/10/04 07:45:24;;;;;;;9.52;4.75;;;;;;;;;;5006722;28;20144;-84
2022/10/04 07:47:49;;;;;;;9.18;5.18;;;;;;;;;;5007864;28;20088;-86
2022/10/04 07:50:23;;;;;;;9.50;5.03;;;;;;;;;;5012326;28;20073;-86
2022/10/04 07:52:57;;;;;;;11.13;5.28;;;;;;;;;;5009996;28;20034;-86
2022/10/04 07:55:27;;;;;;;7.47;4.53;;;;;;;;;;5005887;28;20087;-85
2022/10/04 07:58:14;;;;;;;8.25;4.95;;;;;;;;;;5012651;28;20022;-85
2022/10/04 08:01:00;;;;;;;8.35;5.05;;;;;;;;;;5008306;28;20112;-86
2022/10/04 08:03:44;;;;;;;10.52;5.28;;;;;;;;;;5007006;28;20069;-85
2022/10/04 08:06:36;;;;;;;8.57;5.22;;;;;;;;;;5012992;28;20033;-85
2022/10/04 08:09:24;;;;;;;8.43;5.03;;;;;;;;;;5014796;28;20053;-85
2022/10/04 08:12:06;;;;;;;9.10;4.82;;;;;;;;;;5011374;28;20108;-86
2022/10/04 08:15:10;;;;;;;11.23;5.78;;;;;;;;;;5014005;28;20034;-86
2022/10/04 08:17:49;;;;;;;7.85;5.00;;;;;;;;;;5009513;28;20371;-85
2022/10/04 08:20:36;;;;;;;9.70;4.95;;;;;;;;;;5015618;28;20033;-85
2022/10/04 08:23:07;;;;;;;10.80;5.40;;;;;;;;;;5011416;28;20030;-85
2022/10/04 08:25:43;;;;;;;8.10;5.55;;;;;;;;;;5012985;28;20033;-85
2022/10/04 08:31:20;;;;;;;9.77;4.95;;;;;;;;;;5013595;28;20033;-84
2022/10/04 08:34:16;;;;;;;8.68;4.82;;;;;;;;;;5012835;28;20053;-86
2022/10/04 08:37:12;;;;;;;9.82;4.88;;;;;;;;;;5013152;28;20040;-84
2022/10/04 08:40:22;;;;;;;7.88;4.80;;;;;;;;;;5005595;28;20026;-86
2022/10/04 08:43:13;;;;;;;7.63;4.25;;;;;;;;;;5026082;28;20477;-85
2022/10/04 08:45:52;;;;;;;9.05;5.00;;;;;;;;;;5014572;28;20018;-86
2022/10/04 08:48:30;;;;;;;9.73;5.20;;;;;;;;;;5013624;28;20030;-85
2022/10/04 08:51:20;;;;;;;10.32;4.50;;;;;;;;;;5010915;28;20440;-85
2022/10/04 08:54:19;;;;;;;8.68;4.15;;;;;;;;;;5013823;28;20026;-86
2022/10/04 08:56:47;;;;;;;9.73;4.15;;;;;;;;;;5014616;28;20033;-86
2022/10/04 08:59:38;;;;;;;10.63;4.18;;;;;;;;;;5014661;28;20061;-85
2022/10/04 09:02:15;;;;;;;7.35;4.55;;;;;;;;;;5011204;28;20034;-85
2022/10/04 09:04:53;;;;;;;11.05;4.30;;;;;;;;;;5015119;28;20489;-86
2022/10/04 09:07:31;;;;;;;6.20;4.07;;;;;;;;;;5003235;28;20437;-85
2022/10/04 09:10:30;;;;;;;9.77;4.57;;;;;;;;;;5013243;28;20022;-86
2022/10/04 09:13:33;;;;;;;7.82;4.20;;;;;;;;;;5010123;28;20104;-86
2022/10/04 09:15:59;;;;;;;7.87;4.60;;;;;;;;;;5013658;28;20513;-86
2022/10/04 09:18:50;;;;;;;6.70;4.15;;;;;;;;;;5013422;28;20113;-84
2022/10/04 09:21:33;;;;;;;8.55;4.22;;;;;;;;;;5012176;28;20056;-86
2022/10/04 09:24:29;;;;;;;6.53;3.83;;;;;;;;;;5013931;28;20483;-87
2022/10/04 09:27:18;;;;;;;10.35;4.22;;;;;;;;;;5012755;28;20091;-86
2022/10/04 09:30:10;;;;;;;7.57;4.22;;;;;;;;;;5009920;28;20017;-86
2022/10/04 09:33:10;;;;;;;6.43;4.20;;;;;;;;;;5009395;28;20490;-86
2022/10/04 09:35:38;;;;;;;8.90;4.57;;;;;;;;;;5008151;28;20053;-86
2022/10/04 09:38:39;;;;;;;8.55;4.43;;;;;;;;;;5012124;28;20386;-86
2022/10/04 09:41:26;;;;;;;9.18;4.72;;;;;;;;;;5027255;28;20399;-86
2022/10/04 09:44:15;;;;;;;9.05;4.15;;;;;;;;;;5011830;28;20074;-86
2022/10/04 09:47:05;;;;;;;6.93;3.92;;;;;;;;;;5013733;28;20084;-86
2022/10/04 09:49:46;;;;;;;7.47;4.22;;;;;;;;;;5007074;28;20317;-87
2022/10/04 09:52:40;;;;;;;7.75;4.50;;;;;;;;;;5011195;28;20033;-86
2022/10/04 09:55:33;;;;;;;12.07;4.97;;;;;;;;;;4979164;28;20489;-85
2022/10/04 09:58:33;;;;;;;8.20;4.70;;;;;;;;;;5012111;28;20018;-86
2022/10/04 10:01:10;;;;;;;10.18;5.00;;;;;;;;;;5008326;28;20045;-85
2022/10/04 10:03:57;;;;;;;11.00;4.60;;;;;;;;;;5010237;28;20029;-86
2022/10/04 10:06:41;;;;;;;9.88;4.93;;;;;;;;;;5006905;28;20022;-85
2022/10/04 10:13:38;;;;;;;7.38;4.68;;;;;;;;;;5009923;28;20580;-86
2022/10/04 10:15:13;;;;;;;9.98;5.25;;;;;;;;;;5001290;28;20083;-86
2022/10/04 10:18:03;;;;;;;9.55;5.43;;;;;;;;;;5010153;28;20025;-86
2022/10/04 10:20:52;;;;;;;8.30;5.03;;;;;;;;;;5010994;28;20489;-86
2022/10/04 10:23:45;;;;;;;9.32;5.07;;;;;;;;;;5006979;28;20383;-85
2022/10/04 10:26:22;;;;;;;8.90;4.78;;;;;;;;;;5012289;28;20105;-86
2022/10/04 10:29:07;;;;;;;8.73;5.15;;;;;;;;;;5003723;28;20029;-86
2022/10/04 10:31:57;;;;;;;11.52;5.60;;;;;;;;;;5012965;28;20064;-86
2022/10/04 10:34:31;;;;;;;9.35;4.90;;;;;;;;;;5007116;28;20499;-86
2022/10/04 10:37:14;;;;;;;8.93;4.97;;;;;;;;;;5011057;28;20056;-86
2022/10/04 10:39:51;;;;;;;10.82;4.95;;;;;;;;;;5010877;28;20026;-86
2022/10/04 10:42:26;;;;;;;8.20;5.10;;;;;;;;;;5007376;28;20026;-86
2022/10/04 10:45:25;;;;;;;11.85;5.25;;;;;;;;;;5009365;28;20030;-85
2022/10/04 10:48:26;;;;;;;10.15;5.20;;;;;;;;;;5011642;28;20421;-86
2022/10/04 10:51:16;;;;;;;11.13;4.97;;;;;;;;;;4995742;28;20041;-85
2022/10/04 10:54:24;;;;;;;9.20;4.93;;;;;;;;;;5009718;28;20509;-84
2022/10/04 10:57:07;;;;;;;9.70;4.57;;;;;;;;;;5006538;28;20036;-86
2022/10/04 11:00:10;;;;;;;9.98;4.78;;;;;;;;;;5001240;28;20037;-84
2022/10/04 11:02:53;;;;;;;8.80;4.90;;;;;;;;;;5012028;28;20029;-85
2022/10/04 11:05:56;;;;;;;9.75;4.97;;;;;;;;;;5010591;28;20049;-86
2022/10/04 11:08:44;;;;;;;7.47;4.13;;;;;;;;;;5011083;28;20052;-85
2022/10/04 11:11:34;;;;;;;7.43;4.55;;;;;;;;;;5013699;28;20038;-86
2022/10/04 11:14:29;;;;;;;8.00;4.10;;;;;;;;;;5025765;28;20059;-85
2022/10/04 11:17:12;;;;;;;7.45;5.03;;;;;;;;;;5007217;28;20390;-86
2022/10/04 11:19:54;;;;;;;9.98;4.70;;;;;;;;;;5005986;28;20026;-86
2022/10/04 11:23:06;;;;;;;13.20;5.35;;;;;;;;;;5020840;28;20036;-86
2022/10/04 11:25:46;;;;;;;9.02;4.32;;;;;;;;;;5011114;28;20048;-86
2022/10/04 11:28:21;;;;;;;8.43;4.45;;;;;;;;;;5010902;28;20037;-86
2022/10/04 11:31:19;;;;;;;9.48;3.85;;;;;;;;;;5011354;28;20036;-86
2022/10/04 11:33:56;;;;;;;5.38;3.70;;;;;;;;;;5003835;28;20030;-84
2022/10/04 11:36:36;;;;;;;7.25;4.47;;;;;;;;;;5010382;28;20097;-86
2022/10/04 11:39:19;;;;;;;8.57;4.50;;;;;;;;;;5014046;28;20029;-86
2022/10/04 11:42:03;;;;;;;8.18;3.90;;;;;;;;;;5007769;28;20545;-86
2022/10/04 11:44:47;;;;;;;6.45;3.67;;;;;;;;;;5014292;28;20036;-86
2022/10/04 11:47:48;;;;;;;7.28;3.90;;;;;;;;;;5015387;28;20106;-86
2022/10/04 11:50:37;;;;;;;8.27;3.85;;;;;;;;;;5010527;28;20029;-86
2022/10/04 11:53:52;;;;;;;5.88;3.08;;;;;;;;;;5009932;28;20180;-86
2022/10/04 11:56:35;;;;;;;7.53;3.25;;;;;;;;;;5015473;28;20083;-86
2022/10/04 11:59:17;;;;;;;5.95;3.05;;;;;;;;;;5012761;28;20022;-85
2022/10/04 12:02:15;;;;;;;6.28;2.90;;;;;;;;;;5012329;28;20061;-86
2022/10/04 12:05:06;;;;;;;7.25;3.13;;;;;;;;;;5012259;28;20030;-86
2022/10/04 12:08:00;;;;;;;6.80;3.13;;;;;;;;;;5014070;28;20191;-86
2022/10/04 12:10:40;;;;;;;7.78;4.13;;;;;;;;;;5013922;28;20536;-86
2022/10/04 12:13:11;;;;;;;6.18;3.80;;;;;;;;;;5014333;28;20096;-88
2022/10/04 12:15:55;;;;;;;7.93;3.60;;;;;;;;;;5013390;28;20036;-85
2022/10/04 12:18:25;;;;;;;5.80;3.40;;;;;;;;;;5012944;28;20030;-86
2022/10/04 12:21:08;;;;;;;8.18;3.70;;;;;;;;;;5013316;28;20548;-85
2022/10/04 12:23:56;;;;;;;7.10;3.20;;;;;;;;;;5014268;28;20025;-86
2022/10/04 12:26:36;;;;;;;6.65;3.63;;;;;;;;;;5027366;28;20104;-86
2022/10/04 12:29:23;;;;;;;7.05;3.28;;;;;;;;;;5012717;28;20072;-86
2022/10/04 12:32:07;;;;;;;7.63;3.42;;;;;;;;;;5013916;28;20036;-86
2022/10/04 12:35:16;;;;;;;4.63;3.00;;;;;;;;;;5006683;28;20022;-86
2022/10/04 12:38:18;;;;;;;6.10;3.88;;;;;;;;;;4966975;28;20037;-86
2022/10/04 12:41:12;;;;;;;6.75;3.90;;;;;;;;;;5011497;28;20030;-86
2022/10/04 12:43:39;;;;;;;7.65;4.07;;;;;;;;;;5009998;28;20508;-83
2022/10/04 12:46:26;;;;;;;8.00;4.00;;;;;;;;;;5012476;28;20026;-86
2022/10/04 12:49:32;;;;;;;7.00;3.47;;;;;;;;;;5011894;28;20052;-87
2022/10/04 12:52:20;;;;;;;8.13;3.72;;;;;;;;;;4947228;28;20131;-86
2022/10/04 12:55:01;;;;;;;7.15;3.65;;;;;;;;;;4929680;29;20031;-86
2022/10/04 12:58:02;;;;;;;7.05;3.50;;;;;;;;;;4987258;28;20572;-86
2022/10/04 13:00:32;;;;;;;5.55;3.17;;;;;;;;;;4990364;28;20042;-86
2022/10/04 13:03:20;;;;;;;6.78;3.72;;;;;;;;;;5018817;28;20026;-85
2022/10/04 13:05:45;;;;;;;6.68;3.70;;;;;;;;;;5012387;28;20500;-85
2022/10/04 13:08:46;;;;;;;6.40;3.35;;;;;;;;;;5014055;28;20045;-86
2022/10/04 13:11:45;;;;;;;7.78;3.13;;;;;;;;;;4968284;28;20040;-86
2022/10/04 13:14:49;;;;;;;5.95;3.15;;;;;;;;;;5012573;28;20038;-86
2022/10/04 13:17:36;;;;;;;7.45;3.55;;;;;;;;;;4948838;28;20520;-86
2022/10/04 13:20:38;;;;;;;4.97;2.80;;;;;;;;;;5008584;28;20092;-87
2022/10/04 13:23:43;;;;;;;5.17;2.80;;;;;;;;;;5005008;28;20076;-86
2022/10/04 13:26:22;;;;;;;4.40;2.38;;;;;;;;;;5012480;28;20393;-85
2022/10/04 13:29:01;;;;;;;4.93;2.70;;;;;;;;;;5012458;28;20044;-86
2022/10/04 13:31:51;;;;;;;4.32;2.70;;;;;;;;;;5008885;28;20030;-87
2022/10/04 13:34:22;;;;;;;5.85;2.85;;;;;;;;;;5011000;28;20478;-86
2022/10/04 13:37:14;;;;;;;5.72;2.85;;;;;;;;;;5013459;28;20076;-86
2022/10/04 13:40:07;;;;;;;5.78;3.53;;;;;;;;;;5000298;28;20029;-85
2022/10/04 13:43:16;;;;;;;6.30;3.42;;;;;;;;;;5011715;28;20076;-87
2022/10/04 13:46:29;;;;;;;6.47;3.30;;;;;;;;;;5011694;28;20033;-86
2022/10/04 13:49:24;;;;;;;5.97;2.65;;;;;;;;;;4933376;29;20514;-86
2022/10/04 13:58:30;;;;;;;7.75;3.67;;;;;;;;;;5005045;28;20585;-86
2022/10/04 14:01:18;;;;;;;6.55;3.35;;;;;;;;;;5010111;28;20436;-86
2022/10/04 14:04:05;;;;;;;7.78;3.17;;;;;;;;;;5009250;28;20363;-86
2022/10/04 14:06:53;;;;;;;9.52;3.45;;;;;;;;;;5007636;28;20029;-85
2022/10/04 14:09:37;;;;;;;6.55;2.97;;;;;;;;;;5007143;28;20497;-85
2022/10/04 14:12:24;;;;;;;5.40;3.25;;;;;;;;;;5009336;28;20022;-85
2022/10/04 14:15:08;;;;;;;7.25;3.13;;;;;;;;;;5012684;28;20032;-86
2022/10/04 14:17:51;;;;;;;7.65;2.95;;;;;;;;;;5001513;28;20038;-81
2022/10/04 14:20:40;;;;;;;;;;;;;;;;;;5005143;28;20041;-85
2022/10/04 14:23:27;;;;;;;5.18;2.97;;;;;;;;;;4998696;28;19914;-85
2022/10/04 14:26:49;;;;;;;6.45;3.63;;;;;;;;;;5005814;28;20040;-85
2022/10/04 14:29:33;;;;;;;7.45;3.88;;;;;;;;;;4991849;28;20048;-85
2022/10/04 14:32:27;;;;;;;5.35;3.10;;;;;;;;;;5008365;28;20171;-84
2022/10/04 14:35:20;;;;;;;6.00;3.25;;;;;;;;;;5012246;28;20021;-86
2022/10/04 14:38:08;;;;;;;5.57;2.95;;;;;;;;;;5000314;28;20042;-81
2022/10/04 14:40:55;;;;;;;5.38;3.15;;;;;;;;;;5009420;28;20038;-86
2022/10/04 14:43:58;;;;;;;6.68;3.40;;;;;;;;;;5010891;28;20405;-86
2022/10/04 14:46:53;;;;;;;5.45;2.83;;;;;;;;;;5013042;28;20501;-86
2022/10/04 14:49:46;;;;;;;5.65;2.83;;;;;;;;;;5007885;28;20026;-85
2022/10/04 14:52:41;;;;;;;6.63;3.45;;;;;;;;;;5008653;28;20029;-86
2022/10/04 14:55:28;;;;;;;6.40;3.10;;;;;;;;;;5008363;28;20104;-86
2022/10/04 14:58:15;;;;;;;5.05;2.75;;;;;;;;;;5007880;28;20026;-86
2022/10/04 15:01:00;;;;;;;6.03;3.00;;;;;;;;;;5010332;28;20107;-87
2022/10/04 15:03:42;;;;;;;4.78;2.78;;;;;;;;;;5011139;28;20021;-86
2022/10/04 15:06:15;;;;;;;4.72;2.83;;;;;;;;;;5008872;28;20030;-84
2022/10/04 15:09:10;;;;;;;6.55;3.35;;;;;;;;;;5006626;28;20224;-82
2022/10/04 15:11:43;;;;;;;6.15;3.00;;;;;;;;;;5010209;28;20482;-86
2022/10/04 15:14:27;;;;;;;;;;;;;;;;;;5008461;28;20065;-86
2022/10/04 15:16:59;;;;;;;5.20;2.97;;;;;;;;;;5006044;28;20422;-86
2022/10/04 15:19:38;;;;;;;7.05;2.90;;;;;;;;;;5011490;28;20034;-86
2022/10/04 15:22:26;;;;;;;7.13;2.72;;;;;;;;;;5013942;28;20084;-86
2022/10/04 15:24:52;;;;;;;5.05;2.88;;;;;;;;;;5000285;28;20026;-86
2022/10/04 15:27:32;;;;;;;5.25;3.00;;;;;;;;;;5009640;28;20061;-86
2022/10/04 15:30:26;;;;;;;5.15;2.83;;;;;;;;;;5009870;28;20029;-85
2022/10/04 15:33:10;;;;;;;7.57;3.35;;;;;;;;;;5007698;28;20034;-85
2022/10/04 15:35:48;;;;;;;6.25;2.70;;;;;;;;;;5013816;28;20124;-86
2022/10/04 15:38:33;;;;;;;5.25;2.70;;;;;;;;;;5008175;28;20498;-87
2022/10/04 15:41:17;;;;;;;6.13;2.67;;;;;;;;;;5015325;28;20477;-86
2022/10/04 15:43:45;;;;;;;7.50;3.15;;;;;;;;;;5010390;28;20460;-85
2022/10/04 15:46:41;;;;;;;6.47;3.35;;;;;;;;;;5011160;28;20029;-85
2022/10/04 15:49:35;;;;;;;6.10;2.80;;;;;;;;;;5009523;28;20033;-83
2022/10/04 15:52:02;;;;;;;6.25;3.03;;;;;;;;;;5030421;28;20462;-82
2022/10/04 15:54:58;;;;;;;6.85;2.97;;;;;;;;;;5019166;28;21177;-87
2022/10/04 15:57:36;;;;;;;4.60;2.92;;;;;;;;;;5014077;28;20025;-87
2022/10/04 16:00:20;;;;;;;7.78;3.15;;;;;;;;;;5012247;28;20567;-85
2022/10/04 16:02:57;;;;;;;6.25;3.15;;;;;;;;;;5010608;28;20029;-86
2022/10/04 16:05:46;;;;;;;6.53;3.03;;;;;;;;;;5009823;28;20022;-86
2022/10/04 16:08:40;;;;;;;7.30;3.13;;;;;;;;;;5007321;28;20425;-86
2022/10/04 16:11:30;;;;;;;4.82;2.78;;;;;;;;;;5008204;28;20038;-86
2022/10/04 16:14:37;;;;;;;7.57;3.35;;;;;;;;;;5010331;28;20042;-86
2022/10/04 16:17:22;;;;;;;7.28;3.22;;;;;;;;;;5011433;28;20454;-85
2022/10/04 16:20:14;;;;;;;7.65;3.42;;;;;;;;;;5009937;28;20022;-86